sensor_id;sensor_type;location;lat;lon;timestamp;pressure;altitude;pressure_sealevel;temperature;humidity
48968;BME280;46511;53.148;8.204;2023-11-21T00:01:33;100969.03;;;11.06;100.00
48968;BME280;46511;53.148;8.204;2023-11-21T00:04:04;100972.91;;;11.00;100.00
48968;BME280;46511;53.148;8.204;2023-11-21T00:06:35;100974.78;;;10.82;100.00
48968;BME280;46511;53.148;8.204;2023-11-21T00:09:02;100970.59;;;11.10;100.00
48968;BME280;46511;53.148;8.204;2023-11-21T00:11:33;100977.28;;;11.01;100.00
48968;BME280;46511;53.148;8.204;2023-11-21T00:14:00;100982.66;;;11.15;100.00
48968;BME280;46511;53.148;8.204;2023-11-21T00:16:31;100981.38;;;11.23;100.00
48968;BME280;46511;53.148;8.204;2023-11-21T00:18:57;100983.19;;;11.22;100.00
48968;BME280;46511;53.148;8.204;2023-11-21T00:21:29;100975.03;;;11.25;100.00
48968;BME280;46511;53.148;8.204;2023-11-21T00:23:56;100976.94;;;11.23;100.00
48968;BME280;46511;53.148;8.204;2023-11-21T00:26:27;100983.00;;;11.25;100.00
48968;BME280;46511;53.148;8.204;2023-11-21T00:28:58;100985.50;;;11.12;100.00
48968;BME280;46511;53.148;8.204;2023-11-21T00:31:29;100985.34;;;11.00;100.00
48968;BME280;46511;53.148;8.204;2023-11-21T00:33:56;100988.69;;;11.19;100.00
48968;BME280;46511;53.148;8.204;2023-11-21T00:36:28;100994.25;;;11.14;100.00
48968;BME280;46511;53.148;8.204;2023-11-21T00:38:59;100989.38;;;11.23;100.00
48968;BME280;46511;53.148;8.204;2023-11-21T00:41:30;100996.22;;;11.27;100.00
48968;BME280;46511;53.148;8.204;2023-11-21T00:44:02;100991.22;;;11.36;100.00
48968;BME280;46511;53.148;8.204;2023-11-21T00:46:34;100996.31;;;11.41;100.00
48968;BME280;46511;53.148;8.204;2023-11-21T00:49:05;100992.69;;;11.42;100.00
48968;BME280;46511;53.148;8.204;2023-11-21T00:51:36;100996.13;;;11.44;100.00
48968;BME280;46511;53.148;8.204;2023-11-21T00:54:08;100996.66;;;11.35;100.00
48968;BME280;46511;53.148;8.204;2023-11-21T00:56:39;101003.16;;;11.45;100.00
48968;BME280;46511;53.148;8.204;2023-11-21T00:59:06;101004.72;;;11.49;100.00
48968;BME280;46511;53.148;8.204;2023-11-21T01:01:38;100993.56;;;11.42;100.00
48968;BME280;46511;53.148;8.204;2023-11-21T01:04:09;101006.63;;;11.47;100.00
48968;BME280;46511;53.148;8.204;2023-11-21T01:06:40;101001.28;;;11.47;100.00
48968;BME280;46511;53.148;8.204;2023-11-21T01:09:12;101011.41;;;11.40;100.00
48968;BME280;46511;53.148;8.204;2023-11-21T01:11:43;101008.47;;;11.45;100.00
48968;BME280;46511;53.148;8.204;2023-11-21T01:14:16;101015.69;;;11.27;100.00
48968;BME280;46511;53.148;8.204;2023-11-21T01:16:48;101026.25;;;11.44;100.00
48968;BME280;46511;53.148;8.204;2023-11-21T01:19:20;101026.75;;;11.51;100.00
48968;BME280;46511;53.148;8.204;2023-11-21T01:21:51;101037.19;;;10.91;100.00
48968;BME280;46511;53.148;8.204;2023-11-21T01:24:23;101046.44;;;10.84;100.00
48968;BME280;46511;53.148;8.204;2023-11-21T01:26:50;101054.47;;;11.15;100.00
48968;BME280;46511;53.148;8.204;2023-11-21T01:29:17;101055.94;;;11.53;100.00
48968;BME280;46511;53.148;8.204;2023-11-21T01:31:48;101066.34;;;11.57;100.00
48968;BME280;46511;53.148;8.204;2023-11-21T01:34:19;101049.66;;;11.54;100.00
48968;BME280;46511;53.148;8.204;2023-11-21T01:36:51;101068.81;;;11.60;100.00
48968;BME280;46511;53.148;8.204;2023-11-21T01:39:23;101070.00;;;11.70;100.00
48968;BME280;46511;53.148;8.204;2023-11-21T01:41:54;101065.88;;;11.65;100.00
48968;BME280;46511;53.148;8.204;2023-11-21T01:44:26;101073.28;;;11.60;100.00
48968;BME280;46511;53.148;8.204;2023-11-21T01:46:57;101074.22;;;11.59;100.00
48968;BME280;46511;53.148;8.204;2023-11-21T01:49:28;101074.19;;;11.74;100.00
48968;BME280;46511;53.148;8.204;2023-11-21T01:52:00;101075.59;;;11.82;100.00
48968;BME280;46511;53.148;8.204;2023-11-21T01:54:32;101077.50;;;11.80;100.00
48968;BME280;46511;53.148;8.204;2023-11-21T01:57:04;101073.34;;;11.74;100.00
48968;BME280;46511;53.148;8.204;2023-11-21T01:59:37;101082.38;;;11.71;100.00
48968;BME280;46511;53.148;8.204;2023-11-21T02:02:06;101085.50;;;11.80;100.00
48968;BME280;46511;53.148;8.204;2023-11-21T02:04:38;101080.94;;;11.82;100.00
48968;BME280;46511;53.148;8.204;2023-11-21T02:07:09;101086.78;;;11.88;100.00
48968;BME280;46511;53.148;8.204;2023-11-21T02:09:41;101087.88;;;12.00;100.00
48968;BME280;46511;53.148;8.204;2023-11-21T02:12:16;101086.16;;;11.99;100.00
48968;BME280;46511;53.148;8.204;2023-11-21T02:14:42;101091.56;;;11.97;100.00
48968;BME280;46511;53.148;8.204;2023-11-21T02:17:14;101096.56;;;11.88;100.00
48968;BME280;46511;53.148;8.204;2023-11-21T02:19:40;101105.31;;;11.90;100.00
48968;BME280;46511;53.148;8.204;2023-11-21T02:22:11;101099.31;;;11.86;100.00
48968;BME280;46511;53.148;8.204;2023-11-21T02:24:45;101099.81;;;11.93;100.00
48968;BME280;46511;53.148;8.204;2023-11-21T02:27:17;101109.69;;;11.91;100.00
48968;BME280;46511;53.148;8.204;2023-11-21T02:29:47;101102.84;;;11.87;100.00
48968;BME280;46511;53.148;8.204;2023-11-21T02:32:14;101101.69;;;11.91;100.00
48968;BME280;46511;53.148;8.204;2023-11-21T02:34:40;101110.81;;;11.87;100.00
48968;BME280;46511;53.148;8.204;2023-11-21T02:37:11;101116.63;;;11.78;100.00
48968;BME280;46511;53.148;8.204;2023-11-21T02:39:38;101117.00;;;11.87;100.00
48968;BME280;46511;53.148;8.204;2023-11-21T02:42:09;101120.53;;;11.88;100.00
48968;BME280;46511;53.148;8.204;2023-11-21T02:44:40;101124.22;;;11.85;100.00
48968;BME280;46511;53.148;8.204;2023-11-21T02:47:12;101124.88;;;11.57;100.00
48968;BME280;46511;53.148;8.204;2023-11-21T02:49:43;101132.75;;;11.74;100.00
48968;BME280;46511;53.148;8.204;2023-11-21T02:52:14;101129.28;;;11.90;100.00
48968;BME280;46511;53.148;8.204;2023-11-21T02:54:46;101130.56;;;11.98;100.00
48968;BME280;46511;53.148;8.204;2023-11-21T02:57:17;101134.16;;;11.97;100.00
48968;BME280;46511;53.148;8.204;2023-11-21T02:59:49;101131.41;;;11.83;100.00
48968;BME280;46511;53.148;8.204;2023-11-21T03:02:21;101124.00;;;11.72;100.00
48968;BME280;46511;53.148;8.204;2023-11-21T03:04:53;101126.28;;;11.96;100.00
48968;BME280;46511;53.148;8.204;2023-11-21T03:07:19;101134.25;;;11.96;100.00
48968;BME280;46511;53.148;8.204;2023-11-21T03:09:51;101135.22;;;11.95;100.00
48968;BME280;46511;53.148;8.204;2023-11-21T03:12:22;101133.66;;;11.91;100.00
48968;BME280;46511;53.148;8.204;2023-11-21T03:14:53;101138.44;;;12.00;100.00
48968;BME280;46511;53.148;8.204;2023-11-21T03:17:25;101143.78;;;12.16;100.00
48968;BME280;46511;53.148;8.204;2023-11-21T03:19:56;101137.94;;;12.09;100.00
48968;BME280;46511;53.148;8.204;2023-11-21T03:22:23;101148.44;;;11.96;100.00
48968;BME280;46511;53.148;8.204;2023-11-21T03:24:54;101154.44;;;12.00;100.00
48968;BME280;46511;53.148;8.204;2023-11-21T03:27:26;101155.31;;;11.85;100.00
48968;BME280;46511;53.148;8.204;2023-11-21T03:29:57;101158.88;;;11.84;100.00
48968;BME280;46511;53.148;8.204;2023-11-21T03:32:28;101176.09;;;11.94;100.00
48968;BME280;46511;53.148;8.204;2023-11-21T03:34:59;101176.94;;;11.94;100.00
48968;BME280;46511;53.148;8.204;2023-11-21T03:37:28;101169.38;;;11.87;100.00
48968;BME280;46511;53.148;8.204;2023-11-21T03:39:59;101171.91;;;11.72;100.00
48968;BME280;46511;53.148;8.204;2023-11-21T03:42:30;101180.81;;;11.89;100.00
48968;BME280;46511;53.148;8.204;2023-11-21T03:44:57;101176.75;;;11.33;100.00
48968;BME280;46511;53.148;8.204;2023-11-21T03:47:23;101187.38;;;11.66;100.00
48968;BME280;46511;53.148;8.204;2023-11-21T03:49:54;101185.84;;;11.44;100.00
48968;BME280;46511;53.148;8.204;2023-11-21T03:52:26;101183.84;;;10.99;100.00
48968;BME280;46511;53.148;8.204;2023-11-21T03:54:58;101186.78;;;11.28;100.00
48968;BME280;46511;53.148;8.204;2023-11-21T03:57:29;101196.41;;;11.46;100.00
48968;BME280;46511;53.148;8.204;2023-11-21T04:00:00;101194.69;;;11.45;100.00
48968;BME280;46511;53.148;8.204;2023-11-21T04:02:32;101198.34;;;11.27;100.00
48968;BME280;46511;53.148;8.204;2023-11-21T04:05:04;101212.75;;;11.05;100.00
48968;BME280;46511;53.148;8.204;2023-11-21T04:07:35;101216.94;;;11.27;100.00
48968;BME280;46511;53.148;8.204;2023-11-21T04:10:09;101212.34;;;11.30;100.00
48968;BME280;46511;53.148;8.204;2023-11-21T04:12:43;101228.97;;;11.18;100.00
48968;BME280;46511;53.148;8.204;2023-11-21T04:15:14;101221.38;;;11.10;100.00
48968;BME280;46511;53.148;8.204;2023-11-21T04:17:46;101222.06;;;11.14;100.00
48968;BME280;46511;53.148;8.204;2023-11-21T04:20:12;101233.50;;;11.49;100.00
48968;BME280;46511;53.148;8.204;2023-11-21T04:22:39;101241.69;;;10.77;100.00
48968;BME280;46511;53.148;8.204;2023-11-21T04:25:15;101243.81;;;10.87;100.00
48968;BME280;46511;53.148;8.204;2023-11-21T04:27:46;101252.09;;;10.81;100.00
48968;BME280;46511;53.148;8.204;2023-11-21T04:30:17;101253.09;;;10.62;100.00
48968;BME280;46511;53.148;8.204;2023-11-21T04:32:49;101253.41;;;11.07;100.00
48968;BME280;46511;53.148;8.204;2023-11-21T04:35:21;101272.56;;;10.97;100.00
48968;BME280;46511;53.148;8.204;2023-11-21T04:37:53;101276.91;;;10.99;100.00
48968;BME280;46511;53.148;8.204;2023-11-21T04:40:25;101276.22;;;10.77;100.00
48968;BME280;46511;53.148;8.204;2023-11-21T04:42:58;101274.91;;;10.85;100.00
48968;BME280;46511;53.148;8.204;2023-11-21T04:45:24;101275.41;;;10.57;100.00
48968;BME280;46511;53.148;8.204;2023-11-21T04:47:50;101280.34;;;10.29;100.00
48968;BME280;46511;53.148;8.204;2023-11-21T04:50:23;101287.88;;;10.38;100.00
48968;BME280;46511;53.148;8.204;2023-11-21T04:52:57;101282.81;;;10.51;100.00
48968;BME280;46511;53.148;8.204;2023-11-21T04:55:23;101284.94;;;10.44;100.00
48968;BME280;46511;53.148;8.204;2023-11-21T04:57:54;101296.00;;;10.71;100.00
48968;BME280;46511;53.148;8.204;2023-11-21T05:00:26;101301.41;;;10.51;100.00
48968;BME280;46511;53.148;8.204;2023-11-21T05:02:57;101300.84;;;10.63;100.00
48968;BME280;46511;53.148;8.204;2023-11-21T05:05:28;101306.84;;;10.67;100.00
48968;BME280;46511;53.148;8.204;2023-11-21T05:08:00;101291.59;;;10.70;100.00
48968;BME280;46511;53.148;8.204;2023-11-21T05:10:32;101314.75;;;10.68;100.00
48968;BME280;46511;53.148;8.204;2023-11-21T05:13:04;101318.47;;;10.83;100.00
48968;BME280;46511;53.148;8.204;2023-11-21T05:15:35;101312.81;;;10.89;100.00
48968;BME280;46511;53.148;8.204;2023-11-21T05:18:07;101323.31;;;10.56;100.00
48968;BME280;46511;53.148;8.204;2023-11-21T05:20:38;101325.13;;;10.55;100.00
48968;BME280;46511;53.148;8.204;2023-11-21T05:23:10;101334.25;;;10.86;100.00
48968;BME280;46511;53.148;8.204;2023-11-21T05:25:41;101345.41;;;10.75;100.00
48968;BME280;46511;53.148;8.204;2023-11-21T05:28:13;101351.19;;;10.47;100.00
48968;BME280;46511;53.148;8.204;2023-11-21T05:30:44;101355.97;;;10.58;100.00
48968;BME280;46511;53.148;8.204;2023-11-21T05:33:15;101350.25;;;10.48;100.00
48968;BME280;46511;53.148;8.204;2023-11-21T05:35:42;101356.44;;;10.85;100.00
48968;BME280;46511;53.148;8.204;2023-11-21T05:38:13;101364.94;;;10.74;100.00
48968;BME280;46511;53.148;8.204;2023-11-21T05:40:44;101360.00;;;10.48;100.00
48968;BME280;46511;53.148;8.204;2023-11-21T05:43:15;101369.34;;;10.38;100.00
48968;BME280;46511;53.148;8.204;2023-11-21T05:45:47;101379.13;;;10.17;100.00
48968;BME280;46511;53.148;8.204;2023-11-21T05:48:18;101379.47;;;10.09;100.00
48968;BME280;46511;53.148;8.204;2023-11-21T05:50:49;101388.56;;;10.03;100.00
48968;BME280;46511;53.148;8.204;2023-11-21T05:53:21;101388.00;;;10.36;100.00
48968;BME280;46511;53.148;8.204;2023-11-21T05:55:53;101392.53;;;10.34;100.00
48968;BME280;46511;53.148;8.204;2023-11-21T05:58:24;101397.75;;;10.36;100.00
48968;BME280;46511;53.148;8.204;2023-11-21T06:00:55;101405.81;;;10.34;100.00
48968;BME280;46511;53.148;8.204;2023-11-21T06:03:27;101409.31;;;10.35;100.00
48968;BME280;46511;53.148;8.204;2023-11-21T06:05:58;101410.25;;;10.34;100.00
48968;BME280;46511;53.148;8.204;2023-11-21T06:08:29;101412.13;;;10.69;100.00
48968;BME280;46511;53.148;8.204;2023-11-21T06:11:01;101418.00;;;10.38;100.00
48968;BME280;46511;53.148;8.204;2023-11-21T06:13:32;101427.25;;;10.29;100.00
48968;BME280;46511;53.148;8.204;2023-11-21T06:16:03;101428.78;;;10.35;100.00
48968;BME280;46511;53.148;8.204;2023-11-21T06:18:35;101439.59;;;10.10;100.00
48968;BME280;46511;53.148;8.204;2023-11-21T06:21:09;101437.38;;;10.40;100.00
48968;BME280;46511;53.148;8.204;2023-11-21T06:23:40;101449.16;;;10.35;100.00
48968;BME280;46511;53.148;8.204;2023-11-21T06:26:12;101460.50;;;9.97;100.00
48968;BME280;46511;53.148;8.204;2023-11-21T06:28:44;101457.53;;;10.05;100.00
48968;BME280;46511;53.148;8.204;2023-11-21T06:31:15;101457.63;;;10.24;100.00
48968;BME280;46511;53.148;8.204;2023-11-21T06:33:46;101470.72;;;10.07;100.00
48968;BME280;46511;53.148;8.204;2023-11-21T06:36:17;101468.00;;;9.67;100.00
48968;BME280;46511;53.148;8.204;2023-11-21T06:38:44;101477.47;;;9.93;100.00
48968;BME280;46511;53.148;8.204;2023-11-21T06:41:11;101484.78;;;10.09;100.00
48968;BME280;46511;53.148;8.204;2023-11-21T06:43:46;101487.03;;;9.77;100.00
48968;BME280;46511;53.148;8.204;2023-11-21T06:46:18;101489.56;;;9.80;100.00
48968;BME280;46511;53.148;8.204;2023-11-21T06:48:50;101502.97;;;9.33;100.00
48968;BME280;46511;53.148;8.204;2023-11-21T06:51:17;101500.44;;;9.94;100.00
48968;BME280;46511;53.148;8.204;2023-11-21T06:53:48;101496.78;;;9.77;100.00
48968;BME280;46511;53.148;8.204;2023-11-21T06:56:19;101508.75;;;9.65;100.00
48968;BME280;46511;53.148;8.204;2023-11-21T06:58:51;101516.81;;;9.18;100.00
48968;BME280;46511;53.148;8.204;2023-11-21T07:01:24;101513.13;;;9.66;100.00
48968;BME280;46511;53.148;8.204;2023-11-21T07:03:51;101511.56;;;9.40;100.00
48968;BME280;46511;53.148;8.204;2023-11-21T07:06:22;101519.50;;;9.62;100.00
48968;BME280;46511;53.148;8.204;2023-11-21T07:08:48;101524.13;;;9.57;100.00
48968;BME280;46511;53.148;8.204;2023-11-21T07:11:20;101535.50;;;9.38;100.00
48968;BME280;46511;53.148;8.204;2023-11-21T07:13:52;101541.00;;;9.10;100.00
48968;BME280;46511;53.148;8.204;2023-11-21T07:16:23;101544.25;;;9.62;100.00
48968;BME280;46511;53.148;8.204;2023-11-21T07:18:54;101548.84;;;9.35;100.00
48968;BME280;46511;53.148;8.204;2023-11-21T07:21:26;101549.84;;;9.55;100.00
48968;BME280;46511;53.148;8.204;2023-11-21T07:23:57;101561.22;;;9.13;100.00
48968;BME280;46511;53.148;8.204;2023-11-21T07:26:29;101558.44;;;9.61;100.00
48968;BME280;46511;53.148;8.204;2023-11-21T07:29:07;101559.72;;;9.51;100.00
48968;BME280;46511;53.148;8.204;2023-11-21T07:31:38;101561.44;;;9.30;100.00
48968;BME280;46511;53.148;8.204;2023-11-21T07:34:09;101565.44;;;9.84;100.00
48968;BME280;46511;53.148;8.204;2023-11-21T07:36:43;101575.03;;;9.88;100.00
48968;BME280;46511;53.148;8.204;2023-11-21T07:39:09;101575.44;;;9.34;100.00
48968;BME280;46511;53.148;8.204;2023-11-21T07:41:41;101575.44;;;9.56;100.00
48968;BME280;46511;53.148;8.204;2023-11-21T07:44:16;101574.97;;;9.68;100.00
48968;BME280;46511;53.148;8.204;2023-11-21T07:46:50;101587.97;;;9.52;100.00
48968;BME280;46511;53.148;8.204;2023-11-21T07:49:22;101587.09;;;9.52;100.00
48968;BME280;46511;53.148;8.204;2023-11-21T07:51:54;101601.88;;;9.59;100.00
48968;BME280;46511;53.148;8.204;2023-11-21T07:54:25;101603.69;;;9.57;100.00
48968;BME280;46511;53.148;8.204;2023-11-21T07:56:56;101613.97;;;9.88;100.00
48968;BME280;46511;53.148;8.204;2023-11-21T07:59:28;101627.41;;;9.83;100.00
48968;BME280;46511;53.148;8.204;2023-11-21T08:01:59;101626.28;;;10.11;100.00
48968;BME280;46511;53.148;8.204;2023-11-21T08:04:31;101625.19;;;9.94;100.00
48968;BME280;46511;53.148;8.204;2023-11-21T08:07:03;101632.84;;;9.80;100.00
48968;BME280;46511;53.148;8.204;2023-11-21T08:09:34;101641.72;;;9.79;100.00
48968;BME280;46511;53.148;8.204;2023-11-21T08:12:01;101650.13;;;10.12;100.00
48968;BME280;46511;53.148;8.204;2023-11-21T08:14:33;101654.47;;;10.15;100.00
48968;BME280;46511;53.148;8.204;2023-11-21T08:17:04;101651.47;;;9.79;100.00
48968;BME280;46511;53.148;8.204;2023-11-21T08:19:36;101654.94;;;10.02;100.00
48968;BME280;46511;53.148;8.204;2023-11-21T08:22:08;101655.06;;;9.99;100.00
48968;BME280;46511;53.148;8.204;2023-11-21T08:24:40;101660.31;;;9.56;100.00
48968;BME280;46511;53.148;8.204;2023-11-21T08:27:11;101654.94;;;9.81;100.00
48968;BME280;46511;53.148;8.204;2023-11-21T08:29:42;101656.38;;;9.89;100.00
48968;BME280;46511;53.148;8.204;2023-11-21T08:32:14;101661.88;;;10.07;100.00
48968;BME280;46511;53.148;8.204;2023-11-21T08:34:46;101662.19;;;10.63;100.00
48968;BME280;46511;53.148;8.204;2023-11-21T08:37:15;101666.88;;;10.56;100.00
48968;BME280;46511;53.148;8.204;2023-11-21T08:39:41;101673.22;;;10.32;100.00
48968;BME280;46511;53.148;8.204;2023-11-21T08:42:13;101680.19;;;11.36;100.00
48968;BME280;46511;53.148;8.204;2023-11-21T08:44:44;101681.97;;;11.94;100.00
48968;BME280;46511;53.148;8.204;2023-11-21T08:47:11;101681.50;;;12.56;100.00
48968;BME280;46511;53.148;8.204;2023-11-21T08:49:42;101684.78;;;11.33;100.00
48968;BME280;46511;53.148;8.204;2023-11-21T08:52:14;101684.97;;;11.49;100.00
48968;BME280;46511;53.148;8.204;2023-11-21T08:54:40;101702.25;;;10.99;100.00
48968;BME280;46511;53.148;8.204;2023-11-21T08:57:12;101708.97;;;10.87;100.00
48968;BME280;46511;53.148;8.204;2023-11-21T08:59:43;101713.56;;;10.84;100.00
48968;BME280;46511;53.148;8.204;2023-11-21T09:02:15;101723.09;;;10.88;100.00
48968;BME280;46511;53.148;8.204;2023-11-21T09:04:46;101727.22;;;10.54;100.00
48968;BME280;46511;53.148;8.204;2023-11-21T09:07:12;101731.91;;;10.02;100.00
48968;BME280;46511;53.148;8.204;2023-11-21T09:09:39;101729.63;;;9.93;100.00
48968;BME280;46511;53.148;8.204;2023-11-21T09:12:10;101733.81;;;10.44;100.00
48968;BME280;46511;53.148;8.204;2023-11-21T09:14:43;101739.91;;;10.68;100.00
48968;BME280;46511;53.148;8.204;2023-11-21T09:17:10;101743.81;;;10.80;100.00
48968;BME280;46511;53.148;8.204;2023-11-21T09:19:40;101754.59;;;10.77;100.00
48968;BME280;46511;53.148;8.204;2023-11-21T09:22:11;101756.88;;;11.06;100.00
48968;BME280;46511;53.148;8.204;2023-11-21T09:24:38;101765.31;;;10.96;100.00
48968;BME280;46511;53.148;8.204;2023-11-21T09:27:09;101773.59;;;10.68;100.00
48968;BME280;46511;53.148;8.204;2023-11-21T09:29:40;101778.25;;;10.63;100.00
48968;BME280;46511;53.148;8.204;2023-11-21T09:32:11;101784.03;;;10.72;100.00
48968;BME280;46511;53.148;8.204;2023-11-21T09:34:45;101798.88;;;10.34;100.00
48968;BME280;46511;53.148;8.204;2023-11-21T09:37:16;101787.63;;;10.49;100.00
48968;BME280;46511;53.148;8.204;2023-11-21T09:39:48;101790.06;;;10.32;100.00
48968;BME280;46511;53.148;8.204;2023-11-21T09:42:22;101789.97;;;10.35;100.00
48968;BME280;46511;53.148;8.204;2023-11-21T09:45:05;101794.84;;;10.68;100.00
48968;BME280;46511;53.148;8.204;2023-11-21T09:47:46;101795.75;;;10.23;100.00
48968;BME280;46511;53.148;8.204;2023-11-21T09:50:18;101799.50;;;11.05;100.00
48968;BME280;46511;53.148;8.204;2023-11-21T09:52:57;101801.16;;;11.07;100.00
48968;BME280;46511;53.148;8.204;2023-11-21T09:55:30;101802.19;;;10.83;100.00
48968;BME280;46511;53.148;8.204;2023-11-21T09:58:07;101804.84;;;10.83;100.00
48968;BME280;46511;53.148;8.204;2023-11-21T10:00:46;101807.84;;;11.38;100.00
48968;BME280;46511;53.148;8.204;2023-11-21T10:03:19;101811.16;;;11.23;100.00
48968;BME280;46511;53.148;8.204;2023-11-21T10:05:50;101811.00;;;11.66;100.00
48968;BME280;46511;53.148;8.204;2023-11-21T10:08:24;101811.72;;;11.90;100.00
48968;BME280;46511;53.148;8.204;2023-11-21T10:10:59;101818.50;;;11.77;100.00
48968;BME280;46511;53.148;8.204;2023-11-21T10:13:30;101825.22;;;11.65;100.00
48968;BME280;46511;53.148;8.204;2023-11-21T10:15:58;101821.25;;;11.76;100.00
48968;BME280;46511;53.148;8.204;2023-11-21T10:18:31;101820.56;;;11.91;100.00
48968;BME280;46511;53.148;8.204;2023-11-21T10:21:05;101822.56;;;11.86;100.00
48968;BME280;46511;53.148;8.204;2023-11-21T10:23:37;101825.03;;;11.90;100.00
48968;BME280;46511;53.148;8.204;2023-11-21T10:26:08;101824.56;;;11.81;100.00
48968;BME280;46511;53.148;8.204;2023-11-21T10:28:57;101830.78;;;12.00;100.00
48968;BME280;46511;53.148;8.204;2023-11-21T10:31:34;101836.88;;;11.83;100.00
48968;BME280;46511;53.148;8.204;2023-11-21T10:34:12;101839.91;;;10.93;100.00
48968;BME280;46511;53.148;8.204;2023-11-21T10:36:44;101839.38;;;10.39;100.00
48968;BME280;46511;53.148;8.204;2023-11-21T10:39:16;101840.56;;;11.40;100.00
48968;BME280;46511;53.148;8.204;2023-11-21T10:41:52;101846.31;;;11.09;100.00
48968;BME280;46511;53.148;8.204;2023-11-21T10:44:23;101853.31;;;11.52;100.00
48968;BME280;46511;53.148;8.204;2023-11-21T10:46:55;101847.25;;;10.64;100.00
48968;BME280;46511;53.148;8.204;2023-11-21T10:49:23;101863.41;;;11.44;100.00
48968;BME280;46511;53.148;8.204;2023-11-21T10:51:51;101859.41;;;11.13;100.00
48968;BME280;46511;53.148;8.204;2023-11-21T10:54:24;101859.09;;;11.82;100.00
48968;BME280;46511;53.148;8.204;2023-11-21T10:56:57;101862.47;;;11.65;100.00
48968;BME280;46511;53.148;8.204;2023-11-21T10:59:30;101862.09;;;11.95;100.00
48968;BME280;46511;53.148;8.204;2023-11-21T11:02:18;101866.19;;;12.02;100.00
48968;BME280;46511;53.148;8.204;2023-11-21T11:04:56;101871.72;;;12.37;100.00
48968;BME280;46511;53.148;8.204;2023-11-21T11:07:26;101872.41;;;12.21;100.00
48968;BME280;46511;53.148;8.204;2023-11-21T11:09:58;101872.78;;;11.93;100.00
48968;BME280;46511;53.148;8.204;2023-11-21T11:12:25;101870.69;;;12.39;100.00
48968;BME280;46511;53.148;8.204;2023-11-21T11:14:57;101877.16;;;11.96;100.00
48968;BME280;46511;53.148;8.204;2023-11-21T11:17:29;101881.31;;;11.61;100.00
48968;BME280;46511;53.148;8.204;2023-11-21T11:20:01;101881.00;;;12.28;100.00
48968;BME280;46511;53.148;8.204;2023-11-21T11:25:21;101877.19;;;12.34;100.00
48968;BME280;46511;53.148;8.204;2023-11-21T11:28:04;101882.00;;;12.44;100.00
48968;BME280;46511;53.148;8.204;2023-11-21T11:30:39;101885.03;;;12.55;100.00
48968;BME280;46511;53.148;8.204;2023-11-21T11:42:11;101894.53;;;11.22;100.00
48968;BME280;46511;53.148;8.204;2023-11-21T11:44:48;101901.81;;;11.16;100.00
48968;BME280;46511;53.148;8.204;2023-11-21T11:47:26;101909.09;;;10.91;100.00
48968;BME280;46511;53.148;8.204;2023-11-21T11:52:49;101913.34;;;10.01;100.00
48968;BME280;46511;53.148;8.204;2023-11-21T11:55:18;101908.81;;;10.75;100.00
48968;BME280;46511;53.148;8.204;2023-11-21T11:57:52;101916.94;;;10.72;100.00
48968;BME280;46511;53.148;8.204;2023-11-21T12:02:58;101929.59;;;10.42;100.00
48968;BME280;46511;53.148;8.204;2023-11-21T12:05:34;101925.56;;;10.77;100.00
48968;BME280;46511;53.148;8.204;2023-11-21T12:08:10;101931.66;;;10.81;100.00
48968;BME280;46511;53.148;8.204;2023-11-21T12:10:42;101942.28;;;10.81;100.00
48968;BME280;46511;53.148;8.204;2023-11-21T12:13:14;101935.84;;;10.86;100.00
48968;BME280;46511;53.148;8.204;2023-11-21T12:15:41;101939.75;;;11.22;100.00
48968;BME280;46511;53.148;8.204;2023-11-21T12:18:07;101932.97;;;11.35;100.00
48968;BME280;46511;53.148;8.204;2023-11-21T12:20:39;101947.63;;;11.45;100.00
48968;BME280;46511;53.148;8.204;2023-11-21T12:23:12;101956.75;;;11.18;100.00
48968;BME280;46511;53.148;8.204;2023-11-21T12:25:48;101955.50;;;10.82;100.00
48968;BME280;46511;53.148;8.204;2023-11-21T12:28:20;101961.03;;;10.76;100.00
48968;BME280;46511;53.148;8.204;2023-11-21T12:30:51;101959.25;;;10.30;100.00
48968;BME280;46511;53.148;8.204;2023-11-21T12:33:32;101959.66;;;11.11;100.00
48968;BME280;46511;53.148;8.204;2023-11-21T12:36:04;101960.97;;;10.31;100.00
48968;BME280;46511;53.148;8.204;2023-11-21T12:38:37;101965.63;;;10.73;100.00
48968;BME280;46511;53.148;8.204;2023-11-21T12:41:09;101966.38;;;10.76;100.00
48968;BME280;46511;53.148;8.204;2023-11-21T12:43:41;101968.38;;;10.93;100.00
48968;BME280;46511;53.148;8.204;2023-11-21T12:46:09;101963.28;;;10.87;100.00
48968;BME280;46511;53.148;8.204;2023-11-21T12:48:43;101968.84;;;10.81;100.00
48968;BME280;46511;53.148;8.204;2023-11-21T12:51:16;101966.00;;;11.07;100.00
48968;BME280;46511;53.148;8.204;2023-11-21T12:53:49;101971.50;;;10.57;100.00
48968;BME280;46511;53.148;8.204;2023-11-21T12:56:16;101975.06;;;10.80;100.00
48968;BME280;46511;53.148;8.204;2023-11-21T12:58:44;101981.59;;;10.95;100.00
48968;BME280;46511;53.148;8.204;2023-11-21T13:01:18;101983.84;;;11.05;100.00
48968;BME280;46511;53.148;8.204;2023-11-21T13:03:50;101994.34;;;10.63;100.00
48968;BME280;46511;53.148;8.204;2023-11-21T13:06:22;102006.06;;;10.81;100.00
48968;BME280;46511;53.148;8.204;2023-11-21T13:08:56;102003.25;;;10.62;100.00
48968;BME280;46511;53.148;8.204;2023-11-21T13:11:33;102008.94;;;10.75;100.00
48968;BME280;46511;53.148;8.204;2023-11-21T13:14:05;102016.56;;;10.84;100.00
48968;BME280;46511;53.148;8.204;2023-11-21T13:16:32;102014.88;;;10.58;100.00
48968;BME280;46511;53.148;8.204;2023-11-21T13:19:04;101999.72;;;10.62;100.00